Ship Bottom, New Jersey
Current Conditions -  °F | °C
As of 12:35 PM on Wednesday 26 Nov 2014 (Local Time) from KMJX Reporting Station
Overcast Overcast  
Wind Chill: 33°   Ceiling: 600
Heat Index: 37°   Visibility: 2.5mi
Dew Point: 36°   Wind: 6mph
Humidity: 93%   Direction: 10°N
Pressure: 29.94"   Gusts: NA
Location:  39.623°N, 74.1974°W
Report Text: KMJX 261735Z AUTO 01005KT 2 1/2SM BKN006 OVC012 03/02 A2994 RMK AO1
Loading
Personal Weather Stations






























Interactive Weather Map New forecast layout! Learn more

10-Day Weather Forecast

Advertisements
Track Severe Weather on mobile